Update: 06-Dec-2021 11:38Z
26°C
WEATHER FORECAST DUBAI WORLD CENTRAL
 
Monday, December 06, 2021 (11:40 UTC) 11
Al Maktoum International Airport
Last Updated: 06-Dec-2021 (11:38Z)
Wind Dir/Speed: WNW at 09 kt
Temperature: 26.0°C
Rel. Humidity: 49 %
Pressure: 1017.4 hPa
Visibility: 10000 m
  • METAR OMDW 061130Z 28009KT CAVOK 26/14 Q1017 NOSIG
DWC AIRPORT 5 DAY OUTLOOK:

DWC AIRPORT WEATHER FORECAST FOR 30 HOUR:
DWC TAF:
TAF OMDW 060500Z 0606/0712 23005KT 8000 SCT040
BECMG 0608/0610 30010KT
BECMG 0616/0618 20005KT
PROB30 0623/0705 4000 HZ
BECMG 0708/0710 33010KT=
VALID FROM:
2021-12-06 06:00Z
VALID TILL:
2021-12-07 12:00Z
SURFACE WIND:
SW'LY 05KT

BECOMING NW'LY 10KT FROM 0800Z-1000Z TODAY

BECOMING SSW'LY 05KT FROM 1600Z-1800Z TODAY

BECOMING NW'LY 10KT FROM 0800Z-1000Z TUESDAY.
VISIBILITY:
07-10 KM,
30% PROBABILITY OF 4000 M BETWEEN 2300Z TODAY AND 0500Z TUESDAY.
WEATHER:
FINE,
30% PROBABILITY OF HAZE BETWEEN 2300Z TODAY AND 0500Z TUESDAY.
CLOUD:
FEW TO SCATTERED CUMULUS CLOUD BASE 4,000 FT TOPS 7,000 FT AT TIMES TODAY.
TEMPERATURE:
MAX TEMPERATURE 27°C AROUND 1030Z TODAY

MIN TEMPERATURE 18°C AROUND 0300Z TUESDAY

MAX TEMPERATURE 27°C AROUND 1030Z TUESDAY.
HUMIDITY:
MIN HUMIDITY 40% AROUND 1030Z TODAY

MAX HUMIDITY 90% AROUND 0300Z TUESDAY

MIN HUMIDITY 45% AROUND 1030Z TUESDAY.
WIND SHEAR:
NIL SIGNIFICANT.
TEMPERATURE INVERSION:
NIL SIGNIFICANT.
COMMENTS:
NIL.